Elberon Park, New Jersey
Current Conditions -  °F | °C
As of 1:55 AM on Monday 24 Nov 2014 (Local Time) from KBLM Reporting Station
Overcast Overcast  
Wind Chill: 57°   Ceiling: 1200
Heat Index: 57°   Visibility: 4mi
Dew Point: 52°   Wind: 13mph
Humidity: 82%   Direction: 140°SE
Pressure: 29.87"   Gusts: 20mph
Location:  40.2647°N, 74.022°W
Report Text: KBLM 240655Z AUTO 14011G17KT 4SM SCT005 BKN012 OVC032 14/11 A2987 RMK AO1 P0002
Loading
Personal Weather Stations






























Interactive Weather Map New forecast layout! Learn more

10-Day Weather Forecast

Advertisements
Track Severe Weather on mobile